Needham, Indiana
Current Conditions -  °F | °C
As of 1:53 AM on Friday 28 Nov 2014 (Local Time) from KGEZ Reporting Station
Overcast Overcast  
Wind Chill: 21°   Ceiling: 2900
Heat Index: 26°   Visibility: 10mi
Dew Point: 18°   Wind: 5mph
Humidity: 71%   Direction: 310°NW
Pressure: 30.37"   Gusts: NA
Location:  39.53°N, 85.97°W
Report Text: KGEZ 280653Z AUTO 31004KT 10SM OVC029 M03/M08 A3037 RMK AO2 SLP293 T10331078
Loading
Personal Weather Stations






























Interactive Weather Map New forecast layout! Learn more

10-Day Weather Forecast

Advertisements
Track Severe Weather on mobile